createdAt,value
2022-10-30T00:00:26.518Z,12.40
2022-10-30T00:03:30.073Z,12.40
2022-10-30T00:06:35.808Z,12.50
2022-10-30T00:09:39.121Z,12.40
2022-10-30T00:12:42.535Z,12.50
2022-10-30T00:15:49.837Z,12.40
2022-10-30T00:18:53.213Z,12.30
2022-10-30T00:25:00.314Z,12.30
2022-10-30T00:28:03.744Z,12.20
2022-10-30T00:31:07.703Z,12.30
2022-10-30T00:34:11.059Z,12.30
2022-10-30T00:37:15.756Z,12.30
2022-10-30T00:40:19.638Z,12.30
2022-10-30T00:43:31.384Z,12.30
2022-10-30T00:46:37.781Z,12.30
2022-10-30T00:49:51.165Z,12.30
2022-10-30T00:53:00.374Z,12.30
2022-10-30T00:56:07.293Z,12.30
2022-10-30T00:59:14.368Z,12.30
2022-10-30T01:02:20.823Z,12.30
2022-10-30T01:05:28.161Z,12.40
2022-10-30T01:08:33.159Z,12.30
2022-10-30T01:11:36.497Z,12.30
2022-10-30T01:14:44.589Z,12.30
2022-10-30T01:18:21.069Z,12.30
2022-10-30T01:21:43.734Z,12.40
2022-10-30T01:24:59.936Z,12.30
2022-10-30T01:28:17.397Z,12.20
2022-10-30T01:31:35.135Z,12.20
2022-10-30T01:34:46.960Z,12.10
2022-10-30T01:37:58.202Z,12.00
2022-10-30T01:41:03.108Z,12.00
2022-10-30T01:44:10.377Z,12.00
2022-10-30T01:47:24.025Z,12.00
2022-10-30T01:50:37.803Z,12.00
2022-10-30T01:53:52.931Z,11.90
2022-10-30T01:57:05.567Z,11.90
2022-10-30T02:07:24.193Z,11.90
2022-10-30T02:10:28.729Z,11.90
2022-10-30T02:13:33.997Z,12.00
2022-10-30T02:16:43.700Z,12.00
2022-10-30T02:19:46.899Z,12.00
2022-10-30T02:22:56.058Z,12.00
2022-10-30T02:26:07.345Z,12.10
2022-10-30T02:29:10.551Z,12.00
2022-10-30T02:32:13.703Z,12.00
2022-10-30T02:35:17.844Z,11.90
2022-10-30T02:38:22.555Z,11.90
2022-10-30T02:41:27.336Z,11.80
2022-10-30T02:44:30.689Z,11.90
2022-10-30T02:47:34.057Z,11.90
2022-10-30T02:50:37.534Z,11.80
2022-10-30T02:53:42.661Z,11.80
2022-10-30T02:56:47.076Z,11.80
2022-10-30T02:59:51.182Z,11.90
2022-10-30T03:02:57.229Z,11.80
2022-10-30T03:06:02.064Z,11.80
2022-10-30T03:09:06.819Z,11.80
2022-10-30T03:12:10.129Z,11.70
2022-10-30T03:15:13.403Z,11.70
2022-10-30T03:18:16.719Z,11.80
2022-10-30T03:21:21.919Z,11.80
2022-10-30T03:24:26.703Z,11.80
2022-10-30T03:27:30.667Z,11.90
2022-10-30T03:30:34.584Z,11.90
2022-10-30T03:33:39.000Z,11.90
2022-10-30T03:36:42.274Z,12.00
2022-10-30T03:39:47.459Z,12.00
2022-10-30T03:42:50.875Z,12.00
2022-10-30T03:45:55.802Z,12.10
2022-10-30T03:48:59.494Z,12.10
2022-10-30T03:52:02.712Z,12.10
2022-10-30T03:55:08.442Z,12.10
2022-10-30T03:58:14.504Z,12.10
2022-10-30T04:01:18.928Z,12.10
2022-10-30T04:04:26.242Z,12.10
2022-10-30T04:07:29.859Z,12.10
2022-10-30T04:10:35.127Z,12.10
2022-10-30T04:13:41.748Z,12.10
2022-10-30T04:16:45.113Z,12.10
2022-10-30T04:19:49.359Z,12.10
2022-10-30T04:22:57.409Z,12.10
2022-10-30T04:26:04.046Z,12.10
2022-10-30T04:29:08.747Z,12.10
2022-10-30T04:32:13.043Z,12.10
2022-10-30T04:35:18.652Z,12.10
2022-10-30T04:38:22.439Z,12.00
2022-10-30T04:41:27.944Z,12.00
2022-10-30T04:44:42.560Z,12.00
2022-10-30T04:47:52.714Z,12.00
2022-10-30T04:50:59.333Z,12.00
2022-10-30T04:54:06.703Z,12.00
2022-10-30T04:57:15.683Z,12.00
2022-10-30T05:00:20.371Z,11.90
2022-10-30T05:03:25.541Z,12.00
2022-10-30T05:06:31.095Z,12.00
2022-10-30T05:09:34.743Z,12.00
2022-10-30T05:12:39.511Z,11.90
2022-10-30T05:15:42.849Z,11.90
2022-10-30T05:18:46.100Z,12.00
2022-10-30T05:21:49.327Z,12.00
2022-10-30T05:24:52.490Z,12.10
2022-10-30T05:28:00.971Z,12.10
2022-10-30T05:31:04.696Z,12.10
2022-10-30T05:34:26.211Z,12.10
2022-10-30T05:37:30.266Z,12.10
2022-10-30T05:40:35.619Z,12.10
2022-10-30T05:43:40.415Z,12.10
2022-10-30T05:46:44.712Z,12.10
2022-10-30T05:49:57.672Z,12.10
2022-10-30T05:53:04.360Z,12.20
2022-10-30T05:56:07.840Z,12.20
2022-10-30T05:59:13.734Z,12.20
2022-10-30T06:02:18.652Z,12.30
2022-10-30T06:05:21.976Z,12.30
2022-10-30T06:08:25.690Z,12.30
2022-10-30T06:11:42.216Z,12.20
2022-10-30T06:14:48.849Z,12.20
2022-10-30T06:17:52.712Z,12.30
2022-10-30T06:21:17.102Z,12.30
2022-10-30T06:24:27.343Z,12.40
2022-10-30T06:27:54.651Z,12.40
2022-10-30T06:30:59.507Z,12.50
2022-10-30T06:34:06.462Z,12.60
2022-10-30T06:37:13.313Z,12.70
2022-10-30T06:40:17.086Z,12.80
2022-10-30T06:43:44.736Z,12.70
2022-10-30T06:46:58.821Z,12.80
2022-10-30T06:50:02.061Z,12.80
2022-10-30T06:53:06.815Z,12.90
2022-10-30T06:56:11.129Z,12.90
2022-10-30T06:59:34.506Z,12.90
2022-10-30T07:02:59.519Z,13.00
2022-10-30T07:06:04.029Z,13.00
2022-10-30T07:09:08.571Z,13.00
2022-10-30T07:12:11.930Z,13.00
2022-10-30T07:15:33.986Z,13.10
2022-10-30T07:19:00.651Z,13.10
2022-10-30T07:22:07.719Z,13.10
2022-10-30T07:25:13.350Z,13.10
2022-10-30T07:28:28.883Z,13.20
2022-10-30T07:32:02.152Z,13.20
2022-10-30T07:35:13.255Z,13.30
2022-10-30T07:38:34.485Z,13.20
2022-10-30T07:41:51.654Z,13.20
2022-10-30T07:45:13.392Z,13.30
2022-10-30T07:48:36.726Z,13.50
2022-10-30T07:51:45.281Z,13.60
2022-10-30T07:54:50.187Z,13.70
2022-10-30T07:58:12.076Z,13.90
2022-10-30T08:01:34.237Z,13.90
2022-10-30T08:05:04.431Z,14.10
2022-10-30T08:08:20.209Z,14.20
2022-10-30T08:11:29.976Z,14.20
2022-10-30T08:14:35.520Z,14.30
2022-10-30T08:17:43.671Z,14.40
2022-10-30T08:20:51.466Z,14.30
2022-10-30T08:23:57.191Z,14.30
2022-10-30T08:27:03.953Z,14.30
2022-10-30T08:30:08.490Z,14.30
2022-10-30T08:33:14.583Z,14.30
2022-10-30T08:36:33.031Z,14.30
2022-10-30T08:39:37.647Z,14.50
2022-10-30T08:42:59.601Z,14.80
2022-10-30T08:46:03.585Z,14.80
2022-10-30T08:49:07.070Z,15.10
2022-10-30T08:52:14.086Z,14.90
2022-10-30T08:55:18.978Z,14.80
2022-10-30T08:58:22.267Z,15.10
2022-10-30T09:01:25.805Z,15.30
2022-10-30T09:04:47.800Z,15.20
2022-10-30T09:08:11.094Z,15.40
2022-10-30T09:11:41.384Z,15.10
2022-10-30T09:14:44.616Z,15.20
2022-10-30T09:17:48.778Z,15.30
2022-10-30T09:20:52.539Z,15.40
2022-10-30T09:23:55.789Z,15.50
2022-10-30T09:27:12.262Z,15.50
2022-10-30T09:30:25.635Z,15.70
2022-10-30T09:33:31.661Z,15.80
2022-10-30T09:36:53.588Z,15.70
2022-10-30T09:39:57.232Z,15.60
2022-10-30T09:43:08.704Z,15.50
2022-10-30T09:46:29.204Z,15.50
2022-10-30T09:49:48.291Z,15.70
2022-10-30T09:53:02.199Z,16.00
2022-10-30T09:56:10.194Z,16.10
2022-10-30T09:59:28.767Z,16.20
2022-10-30T10:02:37.030Z,16.00
2022-10-30T10:05:45.385Z,15.80
2022-10-30T10:09:14.542Z,15.80
2022-10-30T10:12:44.705Z,15.70
2022-10-30T10:15:55.331Z,16.10
2022-10-30T10:19:07.104Z,16.40
2022-10-30T10:22:21.022Z,16.80
2022-10-30T10:25:26.178Z,17.40
2022-10-30T10:28:48.969Z,18.00
2022-10-30T10:32:08.238Z,18.70
2022-10-30T10:35:54.626Z,19.00
2022-10-30T10:39:18.197Z,19.20
2022-10-30T10:42:30.994Z,19.10
2022-10-30T10:45:42.324Z,19.30
2022-10-30T10:49:04.328Z,19.40
2022-10-30T10:52:11.708Z,19.00
2022-10-30T10:55:19.649Z,19.20
2022-10-30T10:58:30.955Z,19.60
2022-10-30T11:01:39.499Z,19.40
2022-10-30T11:04:49.043Z,19.50
2022-10-30T11:07:52.482Z,19.60
2022-10-30T11:10:59.453Z,19.70
2022-10-30T11:14:02.864Z,20.20
2022-10-30T11:17:16.657Z,20.40
2022-10-30T11:20:29.273Z,20.60
2022-10-30T11:23:39.816Z,20.30
2022-10-30T11:26:44.146Z,20.90
2022-10-30T11:29:54.036Z,20.50
2022-10-30T11:32:57.816Z,20.80
2022-10-30T11:36:15.522Z,20.20
2022-10-30T11:39:21.482Z,20.20
2022-10-30T11:42:24.989Z,19.90
2022-10-30T11:45:30.937Z,19.50
2022-10-30T11:48:36.232Z,18.90
2022-10-30T11:51:44.429Z,18.60
2022-10-30T11:54:52.259Z,18.20
2022-10-30T11:57:58.822Z,18.30
2022-10-30T12:01:05.344Z,18.40
2022-10-30T12:04:17.238Z,18.60
2022-10-30T12:07:27.986Z,18.70
2022-10-30T12:10:31.962Z,18.70
2022-10-30T12:13:40.062Z,18.50
2022-10-30T12:16:48.013Z,18.20
2022-10-30T12:19:54.576Z,18.10
2022-10-30T12:22:59.528Z,18.10
2022-10-30T12:26:10.179Z,17.90
2022-10-30T12:29:18.513Z,17.70
2022-10-30T12:32:24.478Z,17.40
2022-10-30T12:35:40.565Z,17.20
2022-10-30T12:38:48.752Z,17.10
2022-10-30T12:42:00.698Z,17.00
2022-10-30T12:45:15.975Z,17.00
2022-10-30T12:48:27.993Z,17.00
2022-10-30T12:51:36.896Z,16.60
2022-10-30T12:54:48.855Z,16.50
2022-10-30T12:58:03.230Z,16.30
2022-10-30T13:01:17.241Z,16.20
2022-10-30T13:04:24.080Z,16.50
2022-10-30T13:07:34.398Z,16.70
2022-10-30T13:10:43.840Z,16.80
2022-10-30T13:13:49.733Z,16.70
2022-10-30T13:16:54.335Z,17.10
2022-10-30T13:19:57.996Z,17.40
2022-10-30T13:23:06.880Z,17.60
2022-10-30T13:26:20.419Z,17.50
2022-10-30T13:29:30.559Z,17.10
2022-10-30T13:32:46.929Z,16.90
2022-10-30T13:35:55.643Z,17.00
2022-10-30T13:39:04.468Z,16.80
2022-10-30T13:42:23.418Z,16.80
2022-10-30T13:46:07.314Z,16.80
2022-10-30T13:49:24.559Z,16.90
2022-10-30T13:52:32.088Z,16.90
2022-10-30T13:55:36.983Z,16.30
2022-10-30T13:58:48.019Z,15.80
2022-10-30T14:02:01.504Z,15.60
2022-10-30T14:05:16.674Z,15.50
2022-10-30T14:11:35.114Z,15.20
2022-10-30T14:14:48.429Z,15.00
2022-10-30T14:18:25.921Z,14.90
2022-10-30T14:21:45.323Z,14.80
2022-10-30T14:24:48.812Z,14.60
2022-10-30T14:27:57.373Z,14.60
2022-10-30T14:31:07.535Z,14.50
2022-10-30T14:34:41.904Z,14.40
2022-10-30T14:37:58.486Z,14.30
2022-10-30T14:41:34.239Z,14.20
2022-10-30T14:44:51.284Z,14.10
2022-10-30T14:48:03.229Z,14.00
2022-10-30T14:51:16.958Z,13.90
2022-10-30T14:54:27.473Z,13.70
2022-10-30T14:57:48.833Z,13.60
2022-10-30T15:00:55.154Z,13.40
2022-10-30T15:04:13.486Z,13.20
2022-10-30T15:07:25.246Z,13.10
2022-10-30T15:10:34.280Z,12.90
2022-10-30T15:13:37.771Z,12.70
2022-10-30T15:16:42.575Z,12.50
2022-10-30T15:19:47.828Z,12.50
2022-10-30T15:22:54.368Z,12.30
2022-10-30T15:26:03.644Z,12.20
2022-10-30T15:29:17.977Z,12.10
2022-10-30T15:32:23.201Z,11.90
2022-10-30T15:35:29.991Z,11.80
2022-10-30T15:38:35.092Z,11.70
2022-10-30T15:41:44.058Z,11.60
2022-10-30T15:44:48.226Z,11.50
2022-10-30T15:47:59.868Z,11.40
2022-10-30T15:51:06.696Z,11.50
2022-10-30T15:54:14.358Z,11.40
2022-10-30T15:57:56.993Z,11.30
2022-10-30T16:00:55.358Z,11.20
2022-10-30T16:03:59.050Z,11.20
2022-10-30T16:07:17.667Z,11.30
2022-10-30T16:10:21.168Z,11.30
2022-10-30T16:13:30.225Z,11.40
2022-10-30T16:16:33.710Z,11.50
2022-10-30T16:19:40.915Z,11.60
2022-10-30T16:22:45.572Z,11.70
2022-10-30T16:25:49.382Z,11.60
2022-10-30T16:28:52.794Z,11.50
2022-10-30T16:31:56.646Z,11.40
2022-10-30T16:35:02.648Z,11.20
2022-10-30T16:38:07.541Z,11.20
2022-10-30T16:41:13.552Z,11.10
2022-10-30T16:44:20.623Z,11.00
2022-10-30T16:47:26.543Z,11.10
2022-10-30T16:50:36.108Z,11.00
2022-10-30T16:53:40.912Z,11.00
2022-10-30T16:56:48.988Z,11.00
2022-10-30T16:59:53.432Z,10.90
2022-10-30T17:02:59.176Z,11.00
2022-10-30T17:06:05.206Z,10.90
2022-10-30T17:09:12.201Z,11.00
2022-10-30T17:12:20.373Z,11.10
2022-10-30T17:15:24.899Z,11.10
2022-10-30T17:18:33.370Z,11.00
2022-10-30T17:21:40.695Z,10.90
2022-10-30T17:24:47.552Z,10.80
2022-10-30T17:27:53.580Z,10.80
2022-10-30T17:30:57.068Z,10.70
2022-10-30T17:34:15.868Z,10.70
2022-10-30T17:37:19.484Z,10.80
2022-10-30T17:40:24.789Z,10.80
2022-10-30T17:43:31.164Z,10.80
2022-10-30T17:46:34.678Z,10.80
2022-10-30T17:49:38.243Z,10.90
2022-10-30T17:52:42.284Z,10.90
2022-10-30T17:55:51.648Z,10.90
2022-10-30T17:58:57.616Z,11.00
2022-10-30T18:02:01.278Z,11.00
2022-10-30T18:05:12.416Z,10.90
2022-10-30T18:08:15.862Z,10.90
2022-10-30T18:11:22.935Z,10.90
2022-10-30T18:14:28.467Z,10.90
2022-10-30T18:17:31.913Z,11.00
2022-10-30T18:20:35.554Z,11.00
2022-10-30T18:23:51.854Z,10.90
2022-10-30T18:27:05.660Z,10.90
2022-10-30T18:30:10.496Z,10.90
2022-10-30T18:33:14.007Z,11.00
2022-10-30T18:36:19.037Z,11.00
2022-10-30T18:39:22.591Z,11.10
2022-10-30T18:42:27.226Z,11.30
2022-10-30T18:45:34.194Z,11.40
2022-10-30T18:48:37.455Z,11.30
2022-10-30T18:51:41.067Z,11.50
2022-10-30T18:54:44.552Z,11.50
2022-10-30T18:57:50.166Z,11.50
2022-10-30T19:04:21.733Z,11.60
2022-10-30T19:07:25.554Z,11.60
2022-10-30T19:10:34.444Z,11.60
2022-10-30T19:13:40.213Z,11.50
2022-10-30T19:16:43.859Z,11.40
2022-10-30T19:19:47.323Z,11.40
2022-10-30T19:22:50.546Z,11.50
2022-10-30T19:25:54.515Z,11.50
2022-10-30T19:28:59.577Z,11.40
2022-10-30T19:32:03.057Z,11.20
2022-10-30T19:35:07.211Z,11.00
2022-10-30T19:38:11.664Z,10.80
2022-10-30T19:41:15.107Z,10.70
2022-10-30T19:44:19.864Z,10.70
2022-10-30T19:47:23.824Z,10.60
2022-10-30T19:50:29.973Z,10.60
2022-10-30T19:53:33.599Z,10.50
2022-10-30T19:56:37.994Z,10.40
2022-10-30T19:59:44.017Z,10.40
2022-10-30T20:02:48.075Z,10.40
2022-10-30T20:05:56.790Z,10.40
2022-10-30T20:09:02.517Z,10.40
2022-10-30T20:12:06.941Z,10.40
2022-10-30T20:15:16.118Z,10.40
2022-10-30T20:18:21.269Z,10.40
2022-10-30T20:21:28.464Z,10.40
2022-10-30T20:24:32.680Z,10.40
2022-10-30T20:27:36.500Z,10.30
2022-10-30T20:30:41.412Z,10.30
2022-10-30T20:33:46.725Z,10.30
2022-10-30T20:36:50.485Z,10.30
2022-10-30T20:39:53.838Z,10.20
2022-10-30T20:43:02.667Z,10.20
2022-10-30T20:46:11.148Z,8.70
2022-10-30T20:49:17.729Z,10.20
2022-10-30T20:52:21.975Z,10.20
2022-10-30T20:55:25.418Z,10.20
2022-10-30T20:58:28.972Z,10.20
2022-10-30T21:01:34.005Z,10.20
2022-10-30T21:04:37.648Z,10.20
2022-10-30T21:07:41.030Z,10.20
2022-10-30T21:10:44.723Z,10.10
2022-10-30T21:13:48.147Z,10.10
2022-10-30T21:16:53.355Z,10.10
2022-10-30T21:19:56.765Z,10.00
2022-10-30T21:23:00.558Z,10.00
2022-10-30T21:26:05.871Z,10.00
2022-10-30T21:29:09.951Z,9.90
2022-10-30T21:32:15.663Z,9.90
2022-10-30T21:35:19.676Z,9.80
2022-10-30T21:38:23.065Z,9.70
2022-10-30T21:41:26.598Z,9.60
2022-10-30T21:44:30.145Z,9.60
2022-10-30T21:47:34.867Z,9.60
2022-10-30T21:50:38.144Z,9.60
2022-10-30T21:53:42.051Z,9.60
2022-10-30T21:56:45.694Z,9.60
2022-10-30T21:59:49.318Z,9.60
2022-10-30T22:02:56.224Z,9.60
2022-10-30T22:06:00.018Z,9.60
2022-10-30T22:09:03.774Z,9.70
2022-10-30T22:12:07.779Z,9.60
2022-10-30T22:15:11.575Z,9.50
2022-10-30T22:18:16.404Z,9.40
2022-10-30T22:21:20.027Z,9.40
2022-10-30T22:24:23.280Z,9.30
2022-10-30T22:27:27.396Z,9.30
2022-10-30T22:30:30.779Z,9.20
2022-10-30T22:33:37.274Z,9.10
2022-10-30T22:36:40.652Z,9.00
2022-10-30T22:39:43.965Z,8.90
2022-10-30T22:42:47.954Z,8.90
2022-10-30T22:45:54.907Z,8.80
2022-10-30T22:48:59.955Z,8.70
2022-10-30T22:52:03.267Z,8.60
2022-10-30T22:55:07.486Z,8.60
2022-10-30T22:58:10.830Z,8.60
2022-10-30T23:01:16.076Z,8.60
2022-10-30T23:04:20.840Z,8.60
2022-10-30T23:07:24.383Z,8.60
2022-10-30T23:10:28.574Z,8.70
2022-10-30T23:13:33.047Z,8.60
2022-10-30T23:16:36.462Z,8.60
2022-10-30T23:19:41.205Z,8.60
2022-10-30T23:22:44.458Z,8.60
2022-10-30T23:25:47.688Z,8.50
2022-10-30T23:28:53.354Z,8.50
2022-10-30T23:31:56.837Z,8.30
2022-10-30T23:35:01.429Z,8.30
2022-10-30T23:38:06.246Z,8.20
2022-10-30T23:41:09.843Z,8.10
2022-10-30T23:44:15.511Z,8.10
2022-10-30T23:47:18.827Z,8.10
2022-10-30T23:50:23.519Z,8.00
2022-10-30T23:53:27.050Z,8.00
2022-10-30T23:56:30.560Z,8.00
2022-10-30T23:59:33.810Z,7.90
